createdAt,value
2022-09-12T00:00:06.264Z,100.00
2022-09-12T00:02:59.999Z,100.00
2022-09-12T00:05:28.320Z,100.00
2022-09-12T00:07:56.171Z,100.00
2022-09-12T00:10:24.010Z,100.00
2022-09-12T00:12:52.980Z,100.00
2022-09-12T00:15:20.919Z,100.00
2022-09-12T00:17:48.797Z,100.00
2022-09-12T00:20:17.446Z,100.00
2022-09-12T00:22:45.341Z,100.00
2022-09-12T00:25:13.598Z,100.00
2022-09-12T00:27:41.428Z,100.00
2022-09-12T00:30:09.520Z,100.00
2022-09-12T00:32:37.365Z,100.00
2022-09-12T00:35:05.998Z,100.00
2022-09-12T00:37:35.033Z,100.00
2022-09-12T00:40:03.573Z,100.00
2022-09-12T00:42:31.417Z,100.00
2022-09-12T00:44:59.265Z,100.00
2022-09-12T00:47:29.653Z,100.00
2022-09-12T00:50:13.796Z,100.00
2022-09-12T00:52:51.773Z,100.00
2022-09-12T00:55:23.945Z,100.00
2022-09-12T00:58:00.223Z,100.00
2022-09-12T01:00:29.015Z,100.00
2022-09-12T01:03:05.841Z,100.00
2022-09-12T01:05:36.715Z,100.00
2022-09-12T01:08:06.965Z,100.00
2022-09-12T01:10:36.116Z,100.00
2022-09-12T01:13:07.984Z,100.00
2022-09-12T01:15:38.939Z,100.00
2022-09-12T01:18:12.822Z,100.00
2022-09-12T01:21:15.298Z,100.00
2022-09-12T01:23:45.880Z,100.00
2022-09-12T01:26:41.745Z,100.00
2022-09-12T01:29:12.449Z,100.00
2022-09-12T01:31:48.361Z,100.00
2022-09-12T01:34:49.298Z,100.00
2022-09-12T01:37:54.320Z,100.00
2022-09-12T01:40:39.924Z,100.00
2022-09-12T01:43:22.809Z,100.00
2022-09-12T01:46:01.188Z,100.00
2022-09-12T01:48:37.996Z,100.00
2022-09-12T01:51:20.401Z,100.00
2022-09-12T01:53:58.068Z,100.00
2022-09-12T01:56:29.885Z,100.00
2022-09-12T01:59:22.093Z,100.00
2022-09-12T02:01:58.950Z,100.00
2022-09-12T02:04:34.464Z,100.00
2022-09-12T02:07:11.248Z,100.00
2022-09-12T02:09:50.214Z,100.00
2022-09-12T02:12:25.607Z,100.00
2022-09-12T02:15:02.647Z,100.00
2022-09-12T02:17:35.394Z,100.00
2022-09-12T02:20:14.604Z,100.00
2022-09-12T02:22:52.891Z,100.00
2022-09-12T02:25:23.335Z,100.00
2022-09-12T02:28:05.130Z,100.00
2022-09-12T02:30:42.350Z,100.00
2022-09-12T02:33:38.410Z,100.00
2022-09-12T02:36:22.341Z,100.00
2022-09-12T02:38:50.817Z,100.00
2022-09-12T02:41:20.586Z,100.00
2022-09-12T02:43:50.579Z,100.00
2022-09-12T02:46:38.064Z,100.00
2022-09-12T02:49:06.464Z,100.00
2022-09-12T02:51:36.159Z,100.00
2022-09-12T02:54:07.417Z,100.00
2022-09-12T02:56:35.998Z,100.00
2022-09-12T02:59:08.469Z,100.00
2022-09-12T03:01:56.939Z,100.00
2022-09-12T03:04:49.030Z,100.00
2022-09-12T03:07:39.530Z,100.00
2022-09-12T03:10:25.978Z,100.00
2022-09-12T03:13:10.943Z,100.00
2022-09-12T03:15:38.686Z,100.00
2022-09-12T03:18:47.105Z,100.00
2022-09-12T03:21:17.872Z,100.00
2022-09-12T03:24:04.638Z,100.00
2022-09-12T03:26:45.217Z,100.00
2022-09-12T03:29:15.217Z,100.00
2022-09-12T03:31:57.947Z,100.00
2022-09-12T03:34:28.151Z,100.00
2022-09-12T03:36:56.181Z,100.00
2022-09-12T03:39:26.950Z,100.00
2022-09-12T03:41:56.173Z,100.00
2022-09-12T03:44:25.143Z,100.00
2022-09-12T03:46:53.124Z,100.00
2022-09-12T03:49:21.081Z,100.00
2022-09-12T03:51:48.930Z,100.00
2022-09-12T03:54:16.843Z,100.00
2022-09-12T03:56:44.748Z,100.00
2022-09-12T03:59:12.643Z,100.00
2022-09-12T04:01:41.859Z,100.00
2022-09-12T04:04:10.224Z,100.00
2022-09-12T04:06:38.462Z,100.00
2022-09-12T04:09:06.407Z,100.00
2022-09-12T04:11:35.974Z,100.00
2022-09-12T04:14:03.816Z,100.00
2022-09-12T04:16:32.444Z,100.00
2022-09-12T04:19:00.437Z,100.00
2022-09-12T04:21:28.356Z,100.00
2022-09-12T04:23:56.193Z,100.00
2022-09-12T04:26:24.336Z,100.00
2022-09-12T04:28:57.726Z,100.00
2022-09-12T04:31:26.285Z,100.00
2022-09-12T04:34:00.885Z,100.00
2022-09-12T04:36:29.711Z,100.00
2022-09-12T04:38:58.782Z,100.00
2022-09-12T04:41:32.398Z,100.00
2022-09-12T04:44:03.233Z,100.00
2022-09-12T04:46:36.750Z,100.00
2022-09-12T04:49:05.854Z,100.00
2022-09-12T04:51:36.278Z,100.00
2022-09-12T04:54:12.923Z,100.00
2022-09-12T04:56:43.280Z,100.00
2022-09-12T04:59:13.728Z,100.00
2022-09-12T05:01:41.709Z,100.00
2022-09-12T05:04:13.089Z,100.00
2022-09-12T05:06:42.256Z,100.00
2022-09-12T05:09:14.338Z,100.00
2022-09-12T05:12:03.644Z,100.00
2022-09-12T05:14:33.223Z,100.00
2022-09-12T05:17:02.000Z,100.00
2022-09-12T05:19:31.164Z,100.00
2022-09-12T05:22:00.437Z,100.00
2022-09-12T05:24:28.466Z,100.00
2022-09-12T05:26:56.453Z,100.00
2022-09-12T05:29:25.725Z,100.00
2022-09-12T05:31:53.876Z,100.00
2022-09-12T05:34:21.860Z,100.00
2022-09-12T05:36:49.741Z,100.00
2022-09-12T05:39:18.745Z,100.00
2022-09-12T05:41:47.515Z,100.00
2022-09-12T05:44:15.879Z,100.00
2022-09-12T05:46:46.818Z,100.00
2022-09-12T05:49:14.796Z,100.00
2022-09-12T05:51:45.239Z,100.00
2022-09-12T05:54:15.866Z,100.00
2022-09-12T05:56:45.079Z,100.00
2022-09-12T05:59:16.834Z,100.00
2022-09-12T06:01:45.414Z,100.00
2022-09-12T06:04:13.560Z,100.00
2022-09-12T06:06:45.591Z,100.00
2022-09-12T06:09:15.937Z,100.00
2022-09-12T06:11:45.448Z,100.00
2022-09-12T06:14:17.169Z,100.00
2022-09-12T06:16:47.363Z,100.00
2022-09-12T06:19:20.588Z,100.00
2022-09-12T06:21:51.724Z,100.00
2022-09-12T06:24:21.192Z,100.00
2022-09-12T06:26:50.234Z,100.00
2022-09-12T06:29:19.482Z,100.00
2022-09-12T06:31:47.387Z,100.00
2022-09-12T06:34:16.294Z,100.00
2022-09-12T06:36:47.407Z,100.00
2022-09-12T06:39:20.736Z,100.00
2022-09-12T06:41:50.575Z,100.00
2022-09-12T06:44:22.857Z,99.94
2022-09-12T06:46:50.981Z,99.94
2022-09-12T06:49:18.882Z,99.87
2022-09-12T06:51:46.916Z,99.75
2022-09-12T06:54:17.372Z,99.87
2022-09-12T06:56:45.694Z,99.52
2022-09-12T06:59:14.084Z,99.38
2022-09-12T07:01:45.222Z,99.08
2022-09-12T07:04:13.195Z,99.14
2022-09-12T07:06:43.050Z,98.44
2022-09-12T07:09:16.553Z,97.65
2022-09-12T07:11:46.002Z,98.14
2022-09-12T07:18:51.256Z,97.83
2022-09-12T07:21:20.022Z,96.73
2022-09-12T07:23:49.289Z,96.59
2022-09-12T07:26:17.669Z,96.22
2022-09-12T07:28:45.841Z,96.72
2022-09-12T07:31:19.555Z,94.65
2022-09-12T07:33:51.179Z,95.31
2022-09-12T07:36:23.571Z,95.97
2022-09-12T07:38:57.686Z,96.14
2022-09-12T07:41:29.981Z,94.98
2022-09-12T07:43:59.773Z,94.19
2022-09-12T07:46:31.191Z,94.44
2022-09-12T07:49:01.257Z,92.58
2022-09-12T07:51:30.721Z,91.84
2022-09-12T07:53:58.734Z,91.71
2022-09-12T07:56:31.083Z,90.16
2022-09-12T07:58:59.969Z,90.16
2022-09-12T08:01:28.175Z,89.62
2022-09-12T08:03:58.592Z,89.67
2022-09-12T08:06:30.540Z,89.79
2022-09-12T08:08:59.753Z,89.57
2022-09-12T08:11:29.749Z,86.41
2022-09-12T08:13:58.641Z,86.50
2022-09-12T08:16:30.352Z,85.30
2022-09-12T08:19:01.926Z,83.89
2022-09-12T08:21:31.966Z,84.75
2022-09-12T08:24:03.039Z,84.78
2022-09-12T08:26:34.351Z,83.87
2022-09-12T08:29:08.369Z,83.54
2022-09-12T08:31:39.233Z,82.42
2022-09-12T08:34:08.081Z,81.92
2022-09-12T08:36:36.368Z,82.12
2022-09-12T08:39:07.441Z,82.68
2022-09-12T08:41:35.706Z,80.09
2022-09-12T08:44:03.539Z,77.13
2022-09-12T08:46:31.731Z,78.39
2022-09-12T08:49:02.592Z,77.48
2022-09-12T08:51:34.884Z,76.59
2022-09-12T08:54:05.780Z,74.90
2022-09-12T08:56:37.756Z,73.73
2022-09-12T08:59:05.669Z,72.61
2022-09-12T09:01:42.067Z,72.92
2022-09-12T09:04:29.133Z,72.50
2022-09-12T09:07:23.199Z,73.53
2022-09-12T09:10:14.387Z,73.73
2022-09-12T09:13:07.226Z,73.62
2022-09-12T09:16:03.331Z,71.00
2022-09-12T09:18:36.106Z,68.58
2022-09-12T09:21:15.102Z,68.97
2022-09-12T09:23:47.155Z,70.62
2022-09-12T09:26:26.553Z,70.84
2022-09-12T09:29:14.769Z,70.79
2022-09-12T09:31:43.573Z,70.71
2022-09-12T09:34:22.301Z,68.28
2022-09-12T09:36:55.740Z,69.21
2022-09-12T09:39:26.647Z,67.83
2022-09-12T09:42:17.116Z,66.43
2022-09-12T09:44:48.397Z,65.98
2022-09-12T09:47:19.779Z,64.12
2022-09-12T09:49:47.852Z,64.56
2022-09-12T09:52:21.183Z,65.15
2022-09-12T09:54:57.698Z,64.36
2022-09-12T09:57:40.161Z,62.97
2022-09-12T10:00:27.378Z,63.45
2022-09-12T10:03:04.955Z,63.34
2022-09-12T10:05:37.240Z,61.79
2022-09-12T10:08:08.272Z,60.85
2022-09-12T10:10:36.202Z,60.51
2022-09-12T10:13:24.087Z,61.49
2022-09-12T10:16:02.242Z,61.44
2022-09-12T10:18:42.450Z,61.81
2022-09-12T10:21:23.653Z,61.83
2022-09-12T10:24:00.231Z,62.51
2022-09-12T10:26:33.809Z,61.98
2022-09-12T10:29:27.011Z,62.76
2022-09-12T10:31:58.939Z,63.19
2022-09-12T10:34:32.519Z,61.08
2022-09-12T10:37:09.719Z,59.90
2022-09-12T10:39:39.064Z,60.06
2022-09-12T10:42:07.403Z,58.25
2022-09-12T10:44:35.740Z,58.07
2022-09-12T10:47:24.784Z,56.81
2022-09-12T10:49:52.623Z,55.35
2022-09-12T10:52:26.092Z,56.21
2022-09-12T10:54:54.733Z,56.92
2022-09-12T10:57:33.405Z,56.62
2022-09-12T11:00:17.870Z,55.62
2022-09-12T11:03:22.926Z,56.87
2022-09-12T11:06:02.359Z,54.90
2022-09-12T11:08:37.551Z,55.61
2022-09-12T11:11:14.777Z,57.26
2022-09-12T11:14:07.640Z,54.54
2022-09-12T11:17:12.866Z,53.77
2022-09-12T11:20:04.302Z,52.11
2022-09-12T11:23:00.552Z,53.00
2022-09-12T11:25:35.842Z,52.97
2022-09-12T11:28:20.758Z,50.85
2022-09-12T11:31:13.015Z,51.13
2022-09-12T11:33:46.906Z,52.00
2022-09-12T11:36:27.673Z,50.60
2022-09-12T11:39:07.482Z,51.02
2022-09-12T11:41:40.854Z,52.19
2022-09-12T11:44:40.140Z,52.34
2022-09-12T11:47:12.565Z,50.38
2022-09-12T11:49:49.226Z,50.67
2022-09-12T11:52:25.415Z,50.53
2022-09-12T11:55:17.499Z,49.95
2022-09-12T11:57:53.793Z,49.88
2022-09-12T12:00:29.096Z,50.48
2022-09-12T12:03:16.190Z,47.87
2022-09-12T12:05:56.003Z,47.12
2022-09-12T12:08:28.992Z,47.98
2022-09-12T12:11:00.779Z,47.78
2022-09-12T12:13:32.348Z,48.28
2022-09-12T12:16:08.096Z,47.82
2022-09-12T12:18:40.364Z,47.48
2022-09-12T12:21:29.839Z,47.40
2022-09-12T12:24:09.994Z,47.81
2022-09-12T12:26:40.986Z,46.73
2022-09-12T12:29:14.453Z,47.47
2022-09-12T12:32:21.618Z,46.50
2022-09-12T12:34:49.608Z,46.57
2022-09-12T12:37:21.077Z,45.05
2022-09-12T12:39:51.337Z,45.27
2022-09-12T12:42:34.322Z,45.01
2022-09-12T12:45:08.667Z,45.36
2022-09-12T12:47:36.452Z,45.60
2022-09-12T12:50:10.122Z,45.76
2022-09-12T12:52:50.770Z,45.50
2022-09-12T12:55:26.849Z,45.42
2022-09-12T12:57:56.871Z,46.19
2022-09-12T13:00:34.992Z,45.82
2022-09-12T13:03:18.318Z,45.91
2022-09-12T13:05:50.129Z,46.77
2022-09-12T13:08:17.915Z,46.96
2022-09-12T13:10:52.336Z,46.73
2022-09-12T13:13:36.271Z,46.98
2022-09-12T13:16:04.636Z,46.81
2022-09-12T13:18:49.986Z,46.59
2022-09-12T13:21:21.646Z,46.69
2022-09-12T13:24:17.931Z,47.31
2022-09-12T13:26:47.886Z,46.41
2022-09-12T13:29:19.334Z,45.26
2022-09-12T13:31:53.097Z,45.04
2022-09-12T13:34:28.029Z,44.99
2022-09-12T13:37:20.249Z,45.45
2022-09-12T13:39:56.021Z,45.98
2022-09-12T13:45:20.532Z,45.43
2022-09-12T13:48:01.865Z,45.23
2022-09-12T13:50:45.381Z,45.98
2022-09-12T13:53:25.993Z,45.24
2022-09-12T13:55:57.846Z,45.83
2022-09-12T13:58:31.371Z,46.14
2022-09-12T14:01:22.941Z,47.42
2022-09-12T14:04:15.442Z,48.25
2022-09-12T14:06:52.688Z,49.31
2022-09-12T14:09:28.849Z,50.37
2022-09-12T14:11:58.591Z,50.18
2022-09-12T14:14:43.920Z,50.12
2022-09-12T14:17:34.971Z,50.90
2022-09-12T14:20:08.400Z,51.18
2022-09-12T14:22:39.141Z,51.17
2022-09-12T14:25:19.389Z,50.94
2022-09-12T14:27:52.233Z,50.69
2022-09-12T14:30:27.680Z,50.15
2022-09-12T14:33:10.789Z,50.11
2022-09-12T14:35:43.658Z,49.50
2022-09-12T14:38:39.838Z,50.35
2022-09-12T14:41:10.248Z,51.07
2022-09-12T14:43:45.009Z,51.27
2022-09-12T14:46:24.649Z,50.69
2022-09-12T14:48:58.053Z,51.19
2022-09-12T14:51:27.694Z,51.42
2022-09-12T14:53:55.940Z,51.32
2022-09-12T14:56:42.843Z,50.95
2022-09-12T14:59:34.883Z,51.13
2022-09-12T15:02:24.834Z,51.08
2022-09-12T15:05:10.839Z,51.17
2022-09-12T15:07:43.004Z,50.17
2022-09-12T15:10:25.678Z,49.42
2022-09-12T15:13:05.908Z,50.03
2022-09-12T15:15:34.031Z,50.29
2022-09-12T15:18:06.253Z,50.12
2022-09-12T15:20:37.950Z,49.91
2022-09-12T15:23:36.773Z,49.10
2022-09-12T15:26:05.119Z,49.63
2022-09-12T15:28:34.435Z,49.97
2022-09-12T15:31:07.462Z,49.80
2022-09-12T15:33:35.636Z,49.98
2022-09-12T15:36:04.094Z,50.53
2022-09-12T15:38:32.013Z,50.61
2022-09-12T15:41:23.985Z,51.31
2022-09-12T15:44:01.279Z,51.98
2022-09-12T15:46:38.022Z,51.90
2022-09-12T15:49:14.689Z,51.30
2022-09-12T15:51:42.597Z,50.49
2022-09-12T15:54:21.014Z,51.01
2022-09-12T15:56:57.570Z,51.23
2022-09-12T15:59:34.605Z,51.25
2022-09-12T16:02:12.734Z,51.48
2022-09-12T16:04:50.886Z,51.88
2022-09-12T16:07:24.821Z,51.61
2022-09-12T16:09:52.780Z,51.98
2022-09-12T16:12:20.713Z,52.99
2022-09-12T16:14:48.914Z,53.47
2022-09-12T16:17:25.007Z,54.08
2022-09-12T16:20:02.176Z,54.99
2022-09-12T16:22:39.302Z,56.01
2022-09-12T16:25:12.891Z,56.15
2022-09-12T16:27:51.130Z,57.14
2022-09-12T16:30:27.627Z,58.68
2022-09-12T16:33:03.290Z,58.95
2022-09-12T16:35:42.216Z,59.43
2022-09-12T16:38:18.194Z,59.42
2022-09-12T16:40:52.627Z,61.36
2022-09-12T16:43:30.603Z,62.34
2022-09-12T16:46:23.880Z,62.25
2022-09-12T16:48:59.234Z,63.23
2022-09-12T16:51:38.039Z,64.64
2022-09-12T16:54:15.859Z,65.24
2022-09-12T16:56:50.835Z,65.29
2022-09-12T16:59:18.689Z,65.86
2022-09-12T17:01:47.034Z,66.25
2022-09-12T17:04:14.949Z,66.14
2022-09-12T17:06:45.227Z,66.59
2022-09-12T17:09:20.038Z,66.83
2022-09-12T17:11:48.100Z,67.81
2022-09-12T17:14:16.423Z,66.76
2022-09-12T17:16:51.487Z,67.99
2022-09-12T17:22:01.674Z,68.68
2022-09-12T17:24:29.860Z,69.03
2022-09-12T17:26:59.593Z,69.07
2022-09-12T17:29:28.185Z,69.15
2022-09-12T17:31:56.855Z,68.60
2022-09-12T17:34:25.491Z,68.04
2022-09-12T17:36:54.054Z,68.23
2022-09-12T17:39:23.364Z,68.31
2022-09-12T17:41:55.614Z,67.92
2022-09-12T17:44:25.633Z,68.32
2022-09-12T17:46:54.047Z,68.20
2022-09-12T17:49:22.522Z,68.32
2022-09-12T17:51:52.612Z,68.56
2022-09-12T17:54:21.607Z,68.38
2022-09-12T17:56:50.465Z,68.89
2022-09-12T17:59:22.072Z,69.67
2022-09-12T18:02:09.485Z,69.90
2022-09-12T18:04:37.794Z,69.96
2022-09-12T18:07:07.654Z,69.87
2022-09-12T18:09:36.986Z,70.15
2022-09-12T18:12:09.100Z,70.82
2022-09-12T18:14:38.230Z,71.03
2022-09-12T18:17:08.874Z,71.26
2022-09-12T18:19:37.841Z,71.34
2022-09-12T18:22:06.851Z,71.30
2022-09-12T18:24:35.794Z,71.84
2022-09-12T18:27:05.367Z,71.79
2022-09-12T18:29:33.806Z,71.85
2022-09-12T18:32:02.242Z,72.14
2022-09-12T18:34:30.566Z,72.09
2022-09-12T18:36:59.324Z,72.35
2022-09-12T18:39:28.067Z,72.16
2022-09-12T18:41:56.591Z,72.49
2022-09-12T18:44:24.912Z,72.69
2022-09-12T18:46:53.440Z,72.98
2022-09-12T18:49:22.965Z,73.70
2022-09-12T18:51:51.136Z,73.67
2022-09-12T18:54:20.081Z,74.28
2022-09-12T18:56:48.590Z,74.09
2022-09-12T18:59:17.342Z,74.37
2022-09-12T19:01:46.909Z,74.39
2022-09-12T19:04:16.825Z,74.47
2022-09-12T19:06:48.168Z,74.90
2022-09-12T19:09:26.562Z,74.93
2022-09-12T19:11:54.871Z,74.85
2022-09-12T19:14:25.059Z,75.03
2022-09-12T19:16:53.780Z,75.16
2022-09-12T19:19:22.281Z,75.14
2022-09-12T19:21:50.227Z,75.55
2022-09-12T19:24:18.503Z,75.91
2022-09-12T19:26:46.506Z,76.02
2022-09-12T19:29:16.761Z,75.92
2022-09-12T19:31:45.351Z,76.17
2022-09-12T19:34:15.015Z,75.99
2022-09-12T19:36:45.912Z,76.66
2022-09-12T19:39:21.195Z,76.64
2022-09-12T19:41:49.848Z,76.89
2022-09-12T19:44:19.960Z,77.48
2022-09-12T19:46:48.010Z,78.07
2022-09-12T19:49:15.961Z,77.93
2022-09-12T19:51:44.089Z,77.69
2022-09-12T19:54:12.270Z,78.19
2022-09-12T19:56:40.241Z,78.35
2022-09-12T19:59:09.378Z,78.89
2022-09-12T20:01:37.644Z,79.19
2022-09-12T20:04:07.343Z,79.75
2022-09-12T20:06:35.504Z,80.28
2022-09-12T20:09:03.712Z,80.49
2022-09-12T20:11:32.017Z,80.97
2022-09-12T20:13:59.998Z,81.34
2022-09-12T20:16:29.804Z,81.67
2022-09-12T20:19:07.279Z,83.01
2022-09-12T20:21:36.587Z,83.05
2022-09-12T20:24:07.593Z,82.49
2022-09-12T20:26:36.393Z,82.88
2022-09-12T20:29:05.993Z,83.52
2022-09-12T20:31:34.957Z,83.66
2022-09-12T20:34:03.664Z,83.86
2022-09-12T20:36:31.957Z,84.60
2022-09-12T20:39:01.393Z,84.45
2022-09-12T20:41:32.021Z,85.00
2022-09-12T20:44:00.346Z,84.36
2022-09-12T20:46:29.332Z,85.28
2022-09-12T20:48:58.722Z,85.47
2022-09-12T20:51:27.364Z,85.55
2022-09-12T20:54:03.686Z,85.35
2022-09-12T20:56:34.174Z,85.43
2022-09-12T20:59:02.351Z,85.61
2022-09-12T21:01:34.116Z,86.12
2022-09-12T21:04:02.316Z,85.74
2022-09-12T21:06:31.694Z,85.47
2022-09-12T21:09:00.809Z,85.79
2022-09-12T21:11:29.295Z,86.04
2022-09-12T21:13:58.061Z,87.38
2022-09-12T21:16:26.299Z,87.76
2022-09-12T21:18:56.822Z,86.84
2022-09-12T21:21:25.483Z,87.49
2022-09-12T21:23:57.333Z,88.28
2022-09-12T21:26:25.224Z,89.76
2022-09-12T21:28:53.172Z,89.00
2022-09-12T21:31:21.398Z,87.80
2022-09-12T21:33:49.592Z,87.89
2022-09-12T21:36:18.351Z,87.72
2022-09-12T21:38:46.208Z,87.79
2022-09-12T21:41:16.224Z,87.64
2022-09-12T21:43:45.407Z,88.50
2022-09-12T21:46:13.494Z,89.97
2022-09-12T21:48:43.307Z,90.14
2022-09-12T21:51:11.216Z,88.85
2022-09-12T21:53:40.034Z,88.70
2022-09-12T21:56:09.040Z,88.38
2022-09-12T21:58:38.327Z,88.44
2022-09-12T22:01:09.543Z,88.41
2022-09-12T22:03:37.806Z,88.64
2022-09-12T22:06:07.727Z,90.53
2022-09-12T22:08:38.055Z,91.63
2022-09-12T22:11:12.988Z,91.15
2022-09-12T22:13:43.466Z,92.09
2022-09-12T22:16:12.194Z,92.41
2022-09-12T22:18:40.231Z,92.27
2022-09-12T22:21:22.799Z,91.33
2022-09-12T22:24:10.127Z,91.12
2022-09-12T22:26:46.426Z,91.01
2022-09-12T22:29:14.591Z,90.94
2022-09-12T22:31:43.061Z,90.70
2022-09-12T22:34:10.979Z,91.01
2022-09-12T22:36:39.356Z,91.15
2022-09-12T22:39:08.395Z,92.38
2022-09-12T22:41:36.495Z,92.07
2022-09-12T22:44:04.430Z,91.76
2022-09-12T22:46:33.317Z,91.82
2022-09-12T22:49:01.350Z,91.22
2022-09-12T22:51:29.189Z,91.00
2022-09-12T22:53:57.490Z,91.01
2022-09-12T22:56:26.377Z,91.57
2022-09-12T22:58:54.348Z,92.19
2022-09-12T23:01:22.297Z,92.15
2022-09-12T23:03:50.953Z,92.84
2022-09-12T23:06:19.108Z,92.39
2022-09-12T23:08:46.937Z,92.19
2022-09-12T23:11:18.047Z,91.98
2022-09-12T23:13:47.862Z,91.96
2022-09-12T23:16:19.772Z,93.06
2022-09-12T23:18:48.911Z,93.61
2022-09-12T23:21:19.626Z,94.00
2022-09-12T23:23:48.629Z,94.12
2022-09-12T23:26:28.437Z,94.62
2022-09-12T23:28:59.610Z,95.49
2022-09-12T23:31:30.397Z,94.62
2022-09-12T23:34:04.236Z,94.25
2022-09-12T23:36:33.209Z,94.21
2022-09-12T23:39:01.222Z,93.84
2022-09-12T23:41:29.537Z,94.04
2022-09-12T23:43:57.694Z,94.34
2022-09-12T23:46:25.544Z,94.10
2022-09-12T23:48:53.658Z,93.56
2022-09-12T23:51:22.186Z,93.70
2022-09-12T23:53:50.122Z,93.45
2022-09-12T23:56:18.030Z,93.90
2022-09-12T23:58:45.970Z,94.01
